Terminal Aerodrome Forecast
Issued by NWS

Home | Current Version | Previous Version | Text Only | Print | Product List | Glossary On
Versions: 1 2 3 4 5 6 7 8 9 10 11 12 13 14 15 16 17 18 19
000
FTUS41 KCAR 141120
TAFPQI
TAF
KPQI 141120Z 1412/1512 25012G22KT P6SM FEW030
     FM141500 27014G24KT P6SM BKN030
     FM150000 27010KT P6SM SCT040=

USA.gov is the U.S. government's official web portal to all federal, state and local government web resources and services.